Time;durP1;ratioP1;P1;durP2;ratioP2;P2;SDS_P1;SDS_P2;PMS_P1;PMS_P2;Temp;Humidity;BMP_temperature;BMP_pressure;BME280_temperature;BME280_humidity;BME280_pressure;Samples;Min_cycle;Max_cycle;Signal;HPM_P1;HPM_P2
2022/12/31 00:00:32;;;;;;;2.72;1.55;;;12.50;99.70;;;;;;4938479;29;20086;-87
2022/12/31 00:02:59;;;;;;;2.90;1.00;;;12.50;99.80;;;;;;4922026;29;20411;-87
2022/12/31 00:05:32;;;;;;;2.00;1.05;;;12.50;99.80;;;;;;4890064;29;20486;-87
2022/12/31 00:08:00;;;;;;;2.22;1.15;;;12.50;99.80;;;;;;4892170;29;20518;-89
2022/12/31 00:10:28;;;;;;;1.83;0.93;;;12.50;99.90;;;;;;4899542;29;20043;-87
2022/12/31 00:12:55;;;;;;;2.22;1.17;;;12.60;99.90;;;;;;4877748;29;20051;-87
2022/12/31 00:15:22;;;;;;;1.85;1.05;;;12.60;99.90;;;;;;4876921;29;20071;-87
2022/12/31 00:17:49;;;;;;;2.17;0.90;;;12.60;99.90;;;;;;4884937;29;20052;-87
2022/12/31 00:20:16;;;;;;;2.25;0.70;;;12.60;99.90;;;;;;4872331;29;20073;-88
2022/12/31 00:22:43;;;;;;;1.05;0.52;;;12.70;99.90;;;;;;4885143;29;20522;-88
2022/12/31 00:25:10;;;;;;;1.38;0.50;;;12.70;99.90;;;;;;4884974;29;20044;-87
2022/12/31 00:27:37;;;;;;;0.77;0.40;;;12.70;99.90;;;;;;4881079;29;20498;-88
2022/12/31 00:30:05;;;;;;;0.80;0.35;;;12.60;99.90;;;;;;4898458;29;20051;-84
2022/12/31 00:32:32;;;;;;;1.58;0.40;;;12.60;99.90;;;;;;4889590;29;20138;-84
2022/12/31 00:34:59;;;;;;;0.52;0.35;;;12.60;99.90;;;;;;4891794;29;20483;-84
2022/12/31 00:37:26;;;;;;;0.95;0.40;;;12.50;99.90;;;;;;4898807;29;20044;-84
2022/12/31 00:39:53;;;;;;;1.15;0.28;;;12.50;99.90;;;;;;4883157;29;20163;-83
2022/12/31 00:42:20;;;;;;;1.13;0.30;;;12.50;99.90;;;;;;4884649;29;20084;-83
2022/12/31 00:44:47;;;;;;;0.35;0.22;;;12.50;99.90;;;;;;4881511;29;20083;-83
2022/12/31 00:47:14;;;;;;;0.90;0.30;;;12.40;99.90;;;;;;4872879;29;20047;-83
2022/12/31 00:49:41;;;;;;;1.27;0.50;;;12.40;99.90;;;;;;4910942;29;20071;-83
2022/12/31 00:52:08;;;;;;;0.45;0.30;;;12.40;99.90;;;;;;4887489;29;20040;-83
2022/12/31 00:54:35;;;;;;;1.05;0.40;;;12.40;99.90;;;;;;4893920;29;20050;-82
2022/12/31 00:57:02;;;;;;;0.75;0.38;;;12.40;99.90;;;;;;4891441;29;20056;-83
2022/12/31 00:59:29;;;;;;;1.08;0.30;;;12.40;99.90;;;;;;4889433;29;20044;-84
2022/12/31 01:01:56;;;;;;;0.85;0.43;;;12.40;99.90;;;;;;4877404;29;20055;-84
2022/12/31 01:04:23;;;;;;;1.25;0.32;;;12.30;99.90;;;;;;4918965;29;20051;-84
2022/12/31 01:06:51;;;;;;;1.27;0.40;;;12.30;99.90;;;;;;4894184;29;20048;-84
2022/12/31 01:09:18;;;;;;;1.15;0.50;;;12.30;99.90;;;;;;4902323;29;20505;-85
2022/12/31 01:11:50;;;;;;;1.52;0.88;;;12.20;99.90;;;;;;4895913;29;20156;-86
2022/12/31 01:14:19;;;;;;;2.25;0.82;;;12.20;99.90;;;;;;4899028;29;20044;-86
2022/12/31 01:16:54;;;;;;;1.75;0.80;;;12.20;99.90;;;;;;4922093;29;20958;-85
2022/12/31 01:19:24;;;;;;;1.85;0.77;;;12.20;99.90;;;;;;4884718;29;20052;-85
2022/12/31 01:21:55;;;;;;;2.15;0.80;;;12.20;99.90;;;;;;4924966;29;20058;-85
2022/12/31 01:24:25;;;;;;;1.35;0.60;;;12.20;99.90;;;;;;4897924;29;20039;-85
2022/12/31 01:26:56;;;;;;;2.20;0.80;;;12.20;99.90;;;;;;4885936;29;20048;-95
2022/12/31 01:29:25;;;;;;;2.28;0.90;;;12.10;99.90;;;;;;4912163;29;20052;-94
2022/12/31 01:31:53;;;;;;;2.15;0.90;;;12.10;99.90;;;;;;4903977;29;20059;-88
2022/12/31 01:34:23;;;;;;;1.88;1.05;;;12.10;99.90;;;;;;4870862;29;20078;-87
2022/12/31 01:36:50;;;;;;;1.67;0.70;;;12.10;99.90;;;;;;4883628;29;20356;-87
2022/12/31 01:39:17;;;;;;;2.00;0.90;;;12.10;99.90;;;;;;4908853;29;20087;-87
2022/12/31 01:41:46;;;;;;;2.75;0.50;;;12.10;99.90;;;;;;4907023;29;20076;-87
2022/12/31 01:44:25;;;;;;;2.05;0.93;;;12.00;99.90;;;;;;4883154;29;20048;-85
2022/12/31 01:47:00;;;;;;;1.38;0.60;;;12.10;99.90;;;;;;4899297;29;20475;-86
2022/12/31 01:49:40;;;;;;;1.73;0.52;;;12.00;99.90;;;;;;4896743;29;20501;-87
2022/12/31 01:52:10;;;;;;;2.13;0.80;;;12.00;99.90;;;;;;4928331;29;20535;-87
2022/12/31 01:54:50;;;;;;;2.03;0.82;;;12.00;99.90;;;;;;4911732;29;20051;-88
2022/12/31 01:57:17;;;;;;;2.25;0.70;;;12.00;99.90;;;;;;4887664;29;20134;-88
2022/12/31 01:59:45;;;;;;;0.98;0.30;;;12.00;99.90;;;;;;4895981;29;21103;-90
2022/12/31 02:02:14;;;;;;;1.20;0.50;;;12.00;99.90;;;;;;4901577;29;20059;-88
2022/12/31 02:04:42;;;;;;;1.30;0.60;;;12.00;99.90;;;;;;4892616;29;20055;-90
2022/12/31 02:07:11;;;;;;;2.38;0.70;;;12.00;99.90;;;;;;4889709;29;20115;-90
2022/12/31 02:09:41;;;;;;;1.52;0.73;;;12.00;99.90;;;;;;4885941;29;20506;-91
2022/12/31 02:12:09;;;;;;;1.75;0.60;;;12.00;99.90;;;;;;4912156;29;20043;-86
2022/12/31 02:14:47;;;;;;;2.55;0.98;;;11.90;99.90;;;;;;4890218;29;20051;-86
2022/12/31 02:17:17;;;;;;;2.40;1.10;;;12.00;99.90;;;;;;4907156;29;20052;-85
2022/12/31 02:20:19;;;;;;;2.10;0.80;;;12.00;99.90;;;;;;4918340;29;20044;-85
2022/12/31 02:23:05;;;;;;;2.63;0.93;;;12.00;99.90;;;;;;4903646;29;20072;-85
2022/12/31 02:25:54;;;;;;;2.35;1.20;;;11.90;99.90;;;;;;4887820;29;20052;-85
2022/12/31 02:28:30;;;;;;;2.53;1.02;;;11.90;99.90;;;;;;4897579;29;20051;-86
2022/12/31 02:31:24;;;;;;;4.15;1.05;;;11.90;99.90;;;;;;4914364;29;20058;-87
2022/12/31 02:33:53;;;;;;;2.10;0.93;;;11.90;99.90;;;;;;4909392;29;20595;-86
2022/12/31 02:36:26;;;;;;;2.50;0.70;;;11.90;99.90;;;;;;4907734;29;20050;-86
2022/12/31 02:38:54;;;;;;;1.75;0.70;;;11.90;99.90;;;;;;4902375;29;20494;-86
2022/12/31 02:44:25;;;;;;;1.85;0.85;;;11.90;99.90;;;;;;4900521;29;20141;-86
2022/12/31 02:47:08;;;;;;;1.55;0.75;;;11.90;99.90;;;;;;4898009;29;20052;-86
2022/12/31 02:50:02;;;;;;;1.35;0.52;;;11.90;99.90;;;;;;4900160;29;20040;-86
2022/12/31 02:52:58;;;;;;;1.02;0.50;;;11.90;99.90;;;;;;4927732;29;20052;-86
2022/12/31 02:55:25;;;;;;;2.30;0.60;;;11.90;99.90;;;;;;4912991;29;20048;-86
2022/12/31 02:58:04;;;;;;;1.02;0.38;;;11.90;99.90;;;;;;4906375;29;20146;-86
2022/12/31 03:03:25;;;;;;;0.65;0.30;;;11.90;99.90;;;;;;4911549;29;20048;-85
2022/12/31 03:05:54;;;;;;;2.17;0.43;;;11.80;99.90;;;;;;4887071;29;20048;-83
2022/12/31 03:08:25;;;;;;;1.17;0.40;;;11.90;99.90;;;;;;4925195;29;20058;-83
2022/12/31 03:10:55;;;;;;;1.30;0.40;;;11.90;99.90;;;;;;4914942;29;20055;-83
2022/12/31 03:13:23;;;;;;;0.85;0.20;;;11.90;99.90;;;;;;4887959;29;20485;-83
2022/12/31 03:15:50;;;;;;;1.20;0.30;;;11.80;99.90;;;;;;4888274;29;20048;-82
2022/12/31 03:22:26;;;;;;;2.35;0.47;;;11.90;99.90;;;;;;4890788;29;20067;-82
2022/12/31 03:26:42;;;;;;;1.10;0.40;;;11.80;99.90;;;;;;4917790;29;20078;-93
2022/12/31 03:29:10;;;;;;;1.92;0.65;;;11.80;99.90;;;;;;4870820;29;20123;-93
2022/12/31 03:31:37;;;;;;;1.05;0.50;;;11.80;99.90;;;;;;4901904;29;20048;-94
2022/12/31 03:34:04;;;;;;;1.67;0.40;;;11.80;99.90;;;;;;4889566;29;20506;-90
2022/12/31 03:36:31;;;;;;;2.55;0.98;;;11.70;99.90;;;;;;4919543;29;20156;-90
2022/12/31 03:38:58;;;;;;;2.05;0.77;;;11.70;99.90;;;;;;4860832;29;20165;-91
2022/12/31 03:41:25;;;;;;;0.88;0.40;;;11.70;99.90;;;;;;4907930;29;20055;-90
2022/12/31 03:43:52;;;;;;;1.73;0.30;;;11.70;99.90;;;;;;4890733;29;20423;-92
2022/12/31 03:46:22;;;;;;;1.38;0.47;;;11.70;99.90;;;;;;4888497;29;20107;-91
2022/12/31 03:48:54;;;;;;;1.92;0.30;;;11.80;99.90;;;;;;4876711;29;20075;-91
2022/12/31 03:51:21;;;;;;;2.35;0.40;;;11.70;99.90;;;;;;4873450;29;20418;-93
2022/12/31 03:53:48;;;;;;;0.85;0.30;;;11.70;99.90;;;;;;4888747;29;20050;-94
2022/12/31 03:56:15;;;;;;;1.63;0.47;;;11.70;99.90;;;;;;4912176;29;20048;-93
2022/12/31 03:58:46;;;;;;;0.75;0.30;;;11.70;99.90;;;;;;4907836;29;20052;-92
2022/12/31 04:01:15;;;;;;;1.88;0.30;;;11.70;99.90;;;;;;4859342;29;20048;-91
2022/12/31 04:03:43;;;;;;;0.55;0.40;;;11.70;99.90;;;;;;4888966;29;20406;-92
2022/12/31 04:06:10;;;;;;;1.20;0.30;;;11.70;99.90;;;;;;4873122;29;20157;-92
2022/12/31 04:08:37;;;;;;;1.23;0.30;;;11.70;99.90;;;;;;4874390;29;20091;-92
2022/12/31 04:11:04;;;;;;;0.73;0.32;;;11.80;99.90;;;;;;4903492;29;20052;-91
2022/12/31 04:13:31;;;;;;;0.65;0.35;;;11.80;99.90;;;;;;4887968;29;20048;-90
2022/12/31 04:15:58;;;;;;;2.72;0.82;;;11.80;99.90;;;;;;4874386;29;20139;-91
2022/12/31 04:18:26;;;;;;;1.65;0.50;;;11.80;99.90;;;;;;4891903;29;20054;-93
2022/12/31 04:20:53;;;;;;;1.55;0.50;;;11.80;99.90;;;;;;4905765;29;20055;-88
2022/12/31 04:23:20;;;;;;;1.25;0.50;;;11.80;99.90;;;;;;4891198;29;20048;-85
2022/12/31 04:25:47;;;;;;;1.52;0.50;;;11.80;99.90;;;;;;4879909;29;20496;-85
2022/12/31 04:28:14;;;;;;;1.73;0.60;;;11.80;99.90;;;;;;4891295;29;20096;-85
2022/12/31 04:30:42;;;;;;;2.40;0.60;;;11.80;99.90;;;;;;4882538;29;20402;-86
2022/12/31 04:33:09;;;;;;;1.83;0.70;;;11.80;99.90;;;;;;4867895;29;20844;-85
2022/12/31 04:35:36;;;;;;;2.50;0.80;;;11.80;99.90;;;;;;4886378;29;20036;-86
2022/12/31 04:38:03;;;;;;;1.90;0.70;;;11.80;99.90;;;;;;4882444;29;20095;-85
2022/12/31 04:40:30;;;;;;;2.88;1.13;;;11.80;99.90;;;;;;4876708;29;20039;-85
2022/12/31 04:42:57;;;;;;;1.63;0.68;;;11.80;99.90;;;;;;4874218;29;20044;-85
2022/12/31 04:45:24;;;;;;;1.77;0.50;;;11.80;99.90;;;;;;4876241;29;20051;-85
2022/12/31 04:47:51;;;;;;;1.42;0.63;;;11.80;99.90;;;;;;4881729;29;20044;-85
2022/12/31 04:50:18;;;;;;;1.40;0.50;;;11.80;99.90;;;;;;4883666;29;20051;-85
2022/12/31 04:52:45;;;;;;;0.63;0.30;;;11.80;99.90;;;;;;4877276;29;20043;-84
2022/12/31 04:55:12;;;;;;;1.77;0.50;;;11.80;99.90;;;;;;4892804;29;20045;-84
2022/12/31 04:57:40;;;;;;;0.95;0.63;;;11.80;99.90;;;;;;4884125;29;20044;-84
2022/12/31 05:00:08;;;;;;;1.55;0.40;;;11.80;99.90;;;;;;4881466;29;20401;-84
2022/12/31 05:02:35;;;;;;;0.88;0.40;;;11.80;99.90;;;;;;4876078;29;20083;-85
2022/12/31 05:05:02;;;;;;;1.17;0.40;;;11.80;99.90;;;;;;4873869;29;20047;-84
2022/12/31 05:07:29;;;;;;;1.40;0.52;;;11.80;99.90;;;;;;4876057;29;20048;-85
2022/12/31 05:09:56;;;;;;;1.25;0.40;;;11.80;99.90;;;;;;4912229;29;20138;-85
2022/12/31 05:12:23;;;;;;;1.10;0.47;;;11.80;99.90;;;;;;4855842;29;20052;-85
2022/12/31 05:14:50;;;;;;;1.30;0.50;;;11.80;99.90;;;;;;4877821;29;20043;-85
2022/12/31 05:17:19;;;;;;;1.38;0.50;;;11.80;99.90;;;;;;4885428;29;20197;-86
2022/12/31 05:19:46;;;;;;;1.50;0.60;;;11.80;99.90;;;;;;4879338;29;20047;-85
2022/12/31 05:22:28;;;;;;;1.42;0.82;;;11.80;99.90;;;;;;4874521;29;20490;-85
2022/12/31 05:24:57;;;;;;;1.92;0.50;;;11.80;99.90;;;;;;4893236;29;20048;-85
2022/12/31 05:27:25;;;;;;;1.17;0.55;;;11.80;99.90;;;;;;4912006;29;20441;-85
2022/12/31 05:29:52;;;;;;;1.10;0.50;;;11.90;99.90;;;;;;4914209;29;20102;-85
2022/12/31 05:32:19;;;;;;;1.58;0.52;;;11.90;99.90;;;;;;4901123;29;20071;-86
2022/12/31 05:34:46;;;;;;;1.15;0.50;;;11.90;99.90;;;;;;4866982;29;20055;-86
2022/12/31 05:37:13;;;;;;;0.75;0.40;;;11.90;99.90;;;;;;4875398;29;20047;-86
2022/12/31 05:39:40;;;;;;;0.75;0.32;;;11.90;99.90;;;;;;4873198;29;20044;-85
2022/12/31 05:42:07;;;;;;;0.80;0.30;;;11.90;99.90;;;;;;4918878;29;20073;-85
2022/12/31 05:44:34;;;;;;;1.00;0.20;;;12.00;99.90;;;;;;4894648;29;20430;-85
2022/12/31 05:47:01;;;;;;;0.28;0.10;;;12.00;99.90;;;;;;4875267;29;20079;-84
2022/12/31 05:49:28;;;;;;;0.30;0.20;;;12.00;99.90;;;;;;4896178;29;20059;-85
2022/12/31 05:51:55;;;;;;;0.32;0.20;;;12.00;99.90;;;;;;4883680;29;20051;-84
2022/12/31 05:54:22;;;;;;;0.50;0.30;;;12.00;99.90;;;;;;4906772;29;20035;-85
2022/12/31 05:56:49;;;;;;;0.45;0.22;;;12.00;99.90;;;;;;4907782;29;20040;-84
2022/12/31 05:59:16;;;;;;;0.60;0.13;;;12.10;99.90;;;;;;4873689;29;20078;-85
2022/12/31 06:01:46;;;;;;;0.57;0.20;;;12.10;99.90;;;;;;4877325;29;20048;-85
2022/12/31 06:04:16;;;;;;;0.32;0.20;;;12.10;99.90;;;;;;4882509;29;20056;-84
2022/12/31 06:06:43;;;;;;;0.15;0.10;;;12.10;99.90;;;;;;4864345;29;20052;-85
2022/12/31 06:09:10;;;;;;;0.30;0.13;;;12.10;99.90;;;;;;4859627;29;20055;-85
2022/12/31 06:11:37;;;;;;;0.30;0.10;;;12.10;99.90;;;;;;4895761;29;20445;-84
2022/12/31 06:14:04;;;;;;;0.28;0.17;;;12.10;99.90;;;;;;4869181;29;20052;-85
2022/12/31 06:16:31;;;;;;;0.47;0.20;;;12.10;99.90;;;;;;4875829;29;20471;-85
2022/12/31 06:19:00;;;;;;;0.10;0.10;;;12.10;99.90;;;;;;4906756;29;20130;-84
2022/12/31 06:21:28;;;;;;;0.20;0.10;;;12.10;99.90;;;;;;4913236;29;20155;-85
2022/12/31 06:23:55;;;;;;;0.30;0.10;;;12.10;99.90;;;;;;4888761;29;20062;-85
2022/12/31 06:26:24;;;;;;;0.40;0.20;;;12.10;99.90;;;;;;4897691;29;20418;-84
2022/12/31 06:28:51;;;;;;;0.68;0.30;;;12.10;99.90;;;;;;4892877;29;20131;-84
2022/12/31 06:31:18;;;;;;;0.50;0.20;;;12.20;99.90;;;;;;4891809;29;20048;-85
2022/12/31 06:33:45;;;;;;;0.47;0.20;;;12.20;99.90;;;;;;4873495;29;20044;-84
2022/12/31 06:36:14;;;;;;;0.43;0.20;;;12.20;99.90;;;;;;4877602;29;20099;-84
2022/12/31 06:38:43;;;;;;;0.30;0.10;;;12.20;99.90;;;;;;4887806;29;20051;-85
2022/12/31 06:41:12;;;;;;;0.38;0.15;;;12.20;99.90;;;;;;4909927;29;20054;-84
2022/12/31 06:43:41;;;;;;;0.30;0.20;;;12.20;99.90;;;;;;4913077;29;20103;-85
2022/12/31 06:46:10;;;;;;;0.90;0.65;;;12.20;99.90;;;;;;4861803;29;20502;-86
2022/12/31 06:48:38;;;;;;;0.38;0.10;;;12.30;99.90;;;;;;4905559;29;20485;-85
2022/12/31 06:51:08;;;;;;;2.25;0.30;;;12.30;99.90;;;;;;4911610;29;20487;-86
2022/12/31 06:53:44;;;;;;;0.60;0.20;;;12.40;99.90;;;;;;4914182;29;20044;-85
2022/12/31 06:56:18;;;;;;;0.47;0.20;;;12.40;99.90;;;;;;4875602;29;20043;-85
2022/12/31 06:58:46;;;;;;;0.30;0.20;;;12.50;99.90;;;;;;4905230;29;20056;-85
2022/12/31 07:01:40;;;;;;;1.00;0.50;;;12.60;99.90;;;;;;4912431;29;20060;-85
2022/12/31 07:04:44;;;;;;;0.50;0.17;;;12.70;99.90;;;;;;4907291;29;20054;-85
2022/12/31 07:07:26;;;;;;;0.50;0.20;;;12.80;99.90;;;;;;4909644;29;20048;-84
2022/12/31 07:09:53;;;;;;;0.47;0.30;;;12.90;99.90;;;;;;4907236;29;20051;-84
2022/12/31 07:12:50;;;;;;;0.85;0.40;;;12.90;99.90;;;;;;4905203;29;20123;-84
2022/12/31 07:15:50;;;;;;;0.50;0.30;;;13.00;99.90;;;;;;4912211;29;20391;-84
2022/12/31 07:18:55;;;;;;;1.75;0.30;;;13.10;99.90;;;;;;4890974;29;20052;-84
2022/12/31 07:21:38;;;;;;;0.85;0.50;;;13.10;99.90;;;;;;4917596;29;20056;-85
2022/12/31 07:24:07;;;;;;;0.82;0.40;;;13.20;99.90;;;;;;4903315;29;20052;-85
2022/12/31 07:27:03;;;;;;;0.68;0.30;;;13.20;99.90;;;;;;4904416;29;20103;-84
2022/12/31 07:29:44;;;;;;;1.00;0.28;;;13.20;99.90;;;;;;4910771;29;20051;-84
2022/12/31 07:32:36;;;;;;;0.80;0.40;;;13.20;99.90;;;;;;4908174;29;20047;-84
2022/12/31 07:35:15;;;;;;;0.63;0.30;;;13.20;99.90;;;;;;4922087;29;20054;-90
2022/12/31 07:37:45;;;;;;;0.85;0.35;;;13.20;99.90;;;;;;4885316;29;20162;-89
2022/12/31 07:40:42;;;;;;;0.95;0.30;;;13.20;99.90;;;;;;4913280;29;20063;-89
2022/12/31 07:43:24;;;;;;;1.17;0.40;;;13.20;99.90;;;;;;4915629;29;20060;-88
2022/12/31 07:46:02;;;;;;;1.08;0.40;;;13.20;99.90;;;;;;4896648;29;20060;-89
2022/12/31 07:48:29;;;;;;;3.67;0.60;;;13.20;99.90;;;;;;4921540;29;20048;-89
2022/12/31 07:50:56;;;;;;;1.83;0.50;;;13.20;99.90;;;;;;4916794;29;20059;-90
2022/12/31 07:53:24;;;;;;;3.08;0.63;;;13.20;99.90;;;;;;4903561;29;20068;-90
2022/12/31 07:55:58;;;;;;;2.55;1.08;;;13.20;99.90;;;;;;4886087;29;20048;-89
2022/12/31 07:59:03;;;;;;;2.47;1.00;;;13.20;99.90;;;;;;4911236;29;20048;-85
2022/12/31 08:02:16;;;;;;;1.80;0.70;;;13.20;99.90;;;;;;4900004;29;20049;-89
2022/12/31 08:05:00;;;;;;;2.00;0.80;;;13.20;99.90;;;;;;4846701;29;20162;-89
2022/12/31 08:08:05;;;;;;;2.13;0.90;;;13.20;99.90;;;;;;4899316;29;20078;-89
2022/12/31 08:10:58;;;;;;;2.17;0.85;;;13.20;99.90;;;;;;4909580;29;20052;-87
2022/12/31 08:13:26;;;;;;;1.15;0.60;;;13.20;99.90;;;;;;4911179;29;20050;-84
2022/12/31 08:15:53;;;;;;;1.85;0.73;;;13.20;99.90;;;;;;4907802;29;20498;-85
2022/12/31 08:18:21;;;;;;;1.75;0.73;;;13.30;99.90;;;;;;4930957;29;20054;-85
2022/12/31 08:21:18;;;;;;;1.98;1.00;;;13.30;99.90;;;;;;4902647;29;20052;-84
2022/12/31 08:23:53;;;;;;;0.85;0.38;;;13.30;99.90;;;;;;4899600;29;20112;-85
2022/12/31 08:26:37;;;;;;;1.75;0.40;;;13.30;99.90;;;;;;4899038;29;20535;-89
2022/12/31 08:29:11;;;;;;;0.80;0.30;;;13.20;99.90;;;;;;4897084;29;20051;-89
2022/12/31 08:31:49;;;;;;;1.45;0.30;;;13.20;99.90;;;;;;4903095;29;20052;-91
2022/12/31 08:34:40;;;;;;;2.85;0.30;;;13.10;99.90;;;;;;4903383;29;20048;-87
2022/12/31 08:37:11;;;;;;;0.88;0.32;;;13.00;99.90;;;;;;4906734;29;20043;-85
2022/12/31 08:39:49;;;;;;;1.95;0.30;;;13.00;99.90;;;;;;4910781;29;20064;-85
2022/12/31 08:42:21;;;;;;;1.38;0.35;;;13.00;99.90;;;;;;4906704;29;20106;-86
2022/12/31 08:44:58;;;;;;;1.13;0.28;;;12.90;99.90;;;;;;4920608;29;20103;-86
2022/12/31 08:48:04;;;;;;;0.55;0.20;;;12.90;99.90;;;;;;4908294;29;20054;-91
2022/12/31 08:50:32;;;;;;;0.75;0.30;;;12.90;99.90;;;;;;4895799;29;20059;-91
2022/12/31 08:52:59;;;;;;;1.35;0.20;;;12.90;99.90;;;;;;4904802;29;20040;-92
2022/12/31 08:55:27;;;;;;;1.27;0.25;;;12.90;99.90;;;;;;4920964;29;20048;-91
2022/12/31 08:58:16;;;;;;;1.35;0.50;;;12.90;99.90;;;;;;4902999;29;20052;-92
2022/12/31 09:00:45;;;;;;;1.27;0.20;;;12.90;99.90;;;;;;4919321;29;20047;-93
2022/12/31 09:03:38;;;;;;;3.58;0.38;;;12.90;99.90;;;;;;4912321;29;20056;-91
2022/12/31 09:06:45;;;;;;;0.80;0.30;;;13.00;99.90;;;;;;4904546;29;20155;-91
2022/12/31 09:09:41;;;;;;;1.85;0.43;;;13.00;99.90;;;;;;4863328;29;20087;-90
2022/12/31 09:12:17;;;;;;;0.98;0.25;;;13.00;99.90;;;;;;4893661;29;20510;-91
2022/12/31 09:15:02;;;;;;;1.42;0.30;;;13.00;99.90;;;;;;4913013;29;20095;-91
2022/12/31 09:17:41;;;;;;;1.48;0.40;;;13.00;99.90;;;;;;4903467;29;20142;-90
2022/12/31 09:20:23;;;;;;;1.30;0.40;;;13.00;99.90;;;;;;4894682;29;20090;-90
2022/12/31 09:22:54;;;;;;;2.97;0.50;;;13.00;99.90;;;;;;4916058;29;20056;-91
2022/12/31 09:25:25;;;;;;;2.47;0.40;;;13.10;99.90;;;;;;4907654;29;20502;-91
2022/12/31 09:28:14;;;;;;;1.17;0.43;;;13.10;99.90;;;;;;4920993;29;20118;-92
2022/12/31 09:30:45;;;;;;;2.97;0.70;;;13.10;99.90;;;;;;4897738;29;20054;-94
2022/12/31 09:33:31;;;;;;;3.58;0.70;;;13.10;99.90;;;;;;4907149;29;20049;-94
2022/12/31 09:36:14;;;;;;;1.38;0.60;;;13.10;99.90;;;;;;4902096;29;20564;-88
2022/12/31 09:39:02;;;;;;;2.58;0.70;;;13.20;99.90;;;;;;4887200;29;20056;-87
2022/12/31 09:41:59;;;;;;;1.73;0.65;;;13.20;99.90;;;;;;4906824;29;20047;-87
2022/12/31 09:44:41;;;;;;;2.38;0.60;;;13.30;99.90;;;;;;4920119;29;20723;-87
2022/12/31 09:47:39;;;;;;;1.65;0.93;;;13.30;99.90;;;;;;4918058;29;20050;-91
2022/12/31 09:50:36;;;;;;;1.10;0.70;;;13.30;99.90;;;;;;4903009;29;20048;-91
2022/12/31 09:53:23;;;;;;;1.00;0.50;;;13.40;99.90;;;;;;4934990;29;20035;-88
2022/12/31 09:55:57;;;;;;;1.52;0.40;;;13.40;99.90;;;;;;4926269;29;20047;-88
2022/12/31 09:58:37;;;;;;;1.10;0.70;;;13.50;99.90;;;;;;4923499;29;20050;-88
2022/12/31 10:01:16;;;;;;;1.92;0.70;;;13.50;99.90;;;;;;4921423;29;20052;-87
2022/12/31 10:04:07;;;;;;;2.55;0.68;;;13.60;99.90;;;;;;4921177;29;20091;-87
2022/12/31 10:06:56;;;;;;;4.97;1.27;;;13.70;99.90;;;;;;4911969;29;20048;-87
2022/12/31 10:09:50;;;;;;;3.53;0.93;;;13.80;99.90;;;;;;4905221;29;20400;-88
2022/12/31 10:12:45;;;;;;;2.35;0.80;;;13.90;99.90;;;;;;4901117;29;20494;-88
2022/12/31 10:15:38;;;;;;;3.85;0.90;;;13.90;99.90;;;;;;4882485;29;20049;-88
2022/12/31 10:18:30;;;;;;;3.42;0.50;;;13.90;99.90;;;;;;4893278;29;20060;-87
2022/12/31 10:21:28;;;;;;;1.77;0.60;;;14.00;99.90;;;;;;4866849;29;20051;-87
2022/12/31 10:24:33;;;;;;;2.65;0.82;;;14.00;99.90;;;;;;4894401;29;20048;-88
2022/12/31 10:27:20;;;;;;;2.55;0.82;;;14.00;99.90;;;;;;4880774;29;20051;-89
2022/12/31 10:30:16;;;;;;;2.35;1.40;;;14.10;99.90;;;;;;4884984;29;20080;-89
2022/12/31 10:32:50;;;;;;;3.38;1.30;;;14.20;99.90;;;;;;4898297;29;20139;-88
2022/12/31 10:35:42;;;;;;;2.20;0.90;;;14.30;99.90;;;;;;4874621;29;20048;-88
2022/12/31 10:38:20;;;;;;;2.22;1.05;;;14.40;99.90;;;;;;4884092;29;20101;-89
2022/12/31 10:40:56;;;;;;;3.00;1.05;;;14.40;99.90;;;;;;4891686;29;20100;-89
2022/12/31 10:43:51;;;;;;;2.45;0.80;;;14.50;99.90;;;;;;4887973;29;20487;-88
2022/12/31 10:46:39;;;;;;;2.75;1.00;;;14.50;99.90;;;;;;4879395;29;20418;-89
2022/12/31 10:49:27;;;;;;;3.65;0.82;;;14.60;99.90;;;;;;4883001;29;20048;-89
2022/12/31 10:52:33;;;;;;;2.25;0.70;;;14.60;99.90;;;;;;4902481;29;20060;-91
2022/12/31 10:55:07;;;;;;;2.38;0.80;;;14.60;99.90;;;;;;4892084;29;20044;-87
2022/12/31 10:57:55;;;;;;;4.85;1.17;;;14.60;99.90;;;;;;4891751;29;20040;-91
2022/12/31 11:01:04;;;;;;;4.28;1.02;;;14.60;99.90;;;;;;4887093;29;20048;-87
2022/12/31 11:04:17;;;;;;;6.50;1.83;;;14.70;99.90;;;;;;4883213;29;20143;-87
2022/12/31 11:07:21;;;;;;;3.75;1.17;;;14.70;99.90;;;;;;4852813;29;20096;-87
2022/12/31 11:10:29;;;;;;;3.10;1.25;;;14.80;99.90;;;;;;4911565;29;20503;-87
2022/12/31 11:13:32;;;;;;;2.22;0.82;;;14.80;99.90;;;;;;4886298;29;20388;-87
2022/12/31 11:16:09;;;;;;;2.35;0.93;;;14.80;99.90;;;;;;4926598;29;20499;-86
2022/12/31 11:19:01;;;;;;;2.03;0.95;;;14.80;99.90;;;;;;4903246;29;20048;-87
2022/12/31 11:21:53;;;;;;;3.33;1.20;;;14.80;99.90;;;;;;4916176;29;20456;-88
2022/12/31 11:24:57;;;;;;;4.93;1.10;;;14.70;99.90;;;;;;4916476;29;20080;-87
2022/12/31 11:27:34;;;;;;;5.00;1.00;;;14.70;99.90;;;;;;4884571;29;20048;-87
2022/12/31 11:30:28;;;;;;;2.42;1.02;;;14.70;99.90;;;;;;4909746;29;20056;-88
2022/12/31 11:33:28;;;;;;;5.32;1.95;;;14.70;99.90;;;;;;4900209;29;20107;-88
2022/12/31 11:36:27;;;;;;;4.57;1.80;;;14.70;99.90;;;;;;4907191;29;20783;-89
2022/12/31 11:39:13;;;;;;;7.65;2.03;;;14.70;99.90;;;;;;4914017;29;20067;-88
2022/12/31 11:41:48;;;;;;;5.45;1.73;;;14.80;99.90;;;;;;4907028;29;20099;-88
2022/12/31 11:44:41;;;;;;;8.43;1.45;;;14.70;99.90;;;;;;4883631;29;20049;-88
2022/12/31 11:47:24;;;;;;;3.85;1.13;;;14.80;99.90;;;;;;4900024;29;20052;-88
2022/12/31 11:50:16;;;;;;;5.10;1.65;;;14.70;99.90;;;;;;4910662;29;20067;-88
2022/12/31 11:52:53;;;;;;;4.13;1.30;;;14.70;99.90;;;;;;4891475;29;20108;-88
2022/12/31 11:55:49;;;;;;;5.10;1.42;;;14.70;99.90;;;;;;4899935;29;20050;-88
2022/12/31 11:58:27;;;;;;;4.40;1.00;;;14.80;99.90;;;;;;4916392;29;20060;-88
2022/12/31 12:01:12;;;;;;;4.15;1.45;;;14.80;99.90;;;;;;4903833;29;20135;-88
2022/12/31 12:03:42;;;;;;;4.65;1.10;;;14.80;99.90;;;;;;4903861;29;20517;-89
2022/12/31 12:06:16;;;;;;;3.63;1.38;;;14.80;99.90;;;;;;4899614;29;20052;-89
2022/12/31 12:08:44;;;;;;;5.07;0.95;;;14.90;99.90;;;;;;4916391;29;20080;-89
2022/12/31 12:11:26;;;;;;;4.43;1.10;;;14.90;99.90;;;;;;4885209;29;20096;-88
2022/12/31 12:13:53;;;;;;;3.15;1.00;;;15.00;99.90;;;;;;4897217;29;20055;-86
2022/12/31 12:16:21;;;;;;;2.60;0.90;;;15.00;99.90;;;;;;4885957;29;20410;-88
2022/12/31 12:18:50;;;;;;;2.75;1.77;;;15.00;99.90;;;;;;4902995;29;20096;-88
2022/12/31 12:21:22;;;;;;;4.15;1.20;;;15.10;99.90;;;;;;4915948;29;20095;-88
2022/12/31 12:24:18;;;;;;;4.55;0.98;;;15.10;99.90;;;;;;4889872;29;20052;-88
2022/12/31 12:26:47;;;;;;;3.92;1.23;;;15.20;99.90;;;;;;4901469;29;20099;-88
2022/12/31 12:29:24;;;;;;;5.07;1.42;;;15.10;99.90;;;;;;4887468;29;20051;-88
2022/12/31 12:32:05;;;;;;;3.08;0.90;;;15.10;99.90;;;;;;4902764;29;20112;-89
2022/12/31 12:34:41;;;;;;;5.85;1.13;;;15.00;99.90;;;;;;4909401;29;20054;-88
2022/12/31 12:37:35;;;;;;;4.75;1.20;;;15.00;99.90;;;;;;4909309;29;20051;-88
2022/12/31 12:40:16;;;;;;;3.47;0.93;;;14.90;99.90;;;;;;4872086;29;20407;-88
2022/12/31 12:42:48;;;;;;;4.72;2.53;;;14.80;99.90;;;;;;4893835;29;20062;-88
2022/12/31 12:45:40;;;;;;;10.98;3.22;;;14.80;99.90;;;;;;4876876;29;20051;-89
2022/12/31 12:48:16;;;;;;;6.85;3.22;;;14.70;99.90;;;;;;4909147;29;20063;-92
2022/12/31 12:50:51;;;;;;;6.07;2.80;;;14.70;99.90;;;;;;4908957;29;20075;-92
2022/12/31 12:53:47;;;;;;;5.70;2.88;;;14.60;99.90;;;;;;4902531;29;20055;-92
2022/12/31 12:56:48;;;;;;;6.95;2.03;;;14.60;99.90;;;;;;4880934;29;20051;-91
2022/12/31 12:59:41;;;;;;;5.28;1.60;;;14.60;99.90;;;;;;4909598;29;20051;-90
2022/12/31 13:02:48;;;;;;;3.58;1.30;;;14.60;99.90;;;;;;4909394;29;20054;-89
2022/12/31 13:05:40;;;;;;;6.25;1.08;;;14.60;99.90;;;;;;4921703;29;20056;-88
2022/12/31 13:08:32;;;;;;;6.40;1.30;;;14.60;99.90;;;;;;4891073;29;20055;-89
2022/12/31 13:11:20;;;;;;;3.42;0.80;;;14.70;99.90;;;;;;4888090;29;20140;-93
2022/12/31 13:13:50;;;;;;;3.83;0.95;;;14.70;99.90;;;;;;4903213;29;20068;-91
2022/12/31 13:16:52;;;;;;;5.13;1.33;;;14.60;99.90;;;;;;4917144;29;20566;-91
2022/12/31 13:19:37;;;;;;;6.53;1.60;;;14.70;99.90;;;;;;4903851;29;20044;-92
2022/12/31 13:22:34;;;;;;;4.15;1.75;;;14.70;99.90;;;;;;4902538;29;20059;-91
2022/12/31 13:25:31;;;;;;;6.22;2.30;;;14.70;99.90;;;;;;4901539;29;20119;-90
2022/12/31 13:28:32;;;;;;;5.22;2.20;;;14.80;99.90;;;;;;4907160;29;20047;-96
2022/12/31 13:31:11;;;;;;;4.65;1.58;;;14.80;99.90;;;;;;4916072;29;20103;-94
2022/12/31 13:33:43;;;;;;;6.70;1.73;;;14.80;99.90;;;;;;4904506;29;20080;-89
2022/12/31 13:36:17;;;;;;;3.42;1.25;;;14.80;99.90;;;;;;4910871;29;20047;-86
2022/12/31 13:38:53;;;;;;;3.30;0.95;;;14.80;99.90;;;;;;4904494;29;20090;-86
2022/12/31 13:41:29;;;;;;;4.57;1.33;;;14.80;99.90;;;;;;4920309;29;20107;-86
2022/12/31 13:44:05;;;;;;;6.85;4.68;;;14.70;99.90;;;;;;4904839;29;20276;-87
2022/12/31 13:46:43;;;;;;;5.38;2.50;;;14.60;99.90;;;;;;4918724;29;20086;-87
2022/12/31 13:49:53;;;;;;;5.20;2.60;;;14.60;99.90;;;;;;4906585;29;20103;-88